EDDF/FRA METAR and TAF weather

Enter ICAO airport designator
Station Type Date Time Source
EDDF METAR 2018/01/23 01:20 UTC NOAA

EDDF 230120Z 24006KT 9999 -RA FEW028 BKN058 06/03 Q1020 R88/2///95 NOSIG


Station Type Date Time Source
EDDF Decoded METAR 2018/01/23 01:20 UTC NOAA

Frankfurt / M-Flughafen, Germany (EDDF) 50-03N 008-36E 113M
Jan 22, 2018 - 08:20 PM EST / 2018.01.23 0120 UTC
Wind: from the WSW (240 degrees) at 7 MPH (6 KT):0
Visibility: greater than 7 mile(s):0
Sky conditions: mostly cloudy
Weather: light rain
Temperature: 42 F (6 C)
Dew Point: 37 F (3 C)
Relative Humidity: 81%
Pressure (altimeter): 30.12 in. Hg (1020 hPa)
ob: EDDF 230120Z 24006KT 9999 -RA FEW028 BKN058 06/03 Q1020 R88/2///95 NOSIG
cycle: 1

Station Type Date Time Source
EDDF TAF 2018/01/22 18:27 UTC NOAA

TAF TAF EDDF 221700Z 2218/2324 26005KT 9999 BKN030
TEMPO 2218/2309 SCT030 PROB30
TEMPO 2218/2221 4000 BR
BECMG 2304/2306 20009KT


Example: see airport list